Time;durP1;ratioP1;P1;durP2;ratioP2;P2;SDS_P1;SDS_P2;PMS_P1;PMS_P2;Temp;Humidity;BMP_temperature;BMP_pressure;BME280_temperature;BME280_humidity;BME280_pressure;Samples;Min_cycle;Max_cycle;Signal;HPM_P1;HPM_P2
2022/04/30 00:00:58;;;;;;;10.00;3.17;;;;;;;7.47;83.44;94982.81;5056351;28;20056;-95
2022/04/30 00:03:28;;;;;;;7.32;3.22;;;;;;;7.26;88.04;94982.44;5055707;28;20029;-94
2022/04/30 00:05:57;;;;;;;6.85;3.22;;;;;;;7.19;88.65;94979.16;5055815;28;20032;-94
2022/04/30 00:08:23;;;;;;;5.72;2.70;;;;;;;7.41;86.75;94979.31;5039547;28;20029;-94
2022/04/30 00:10:50;;;;;;;4.65;2.65;;;;;;;7.45;86.36;94977.84;5040064;28;20025;-94
2022/04/30 00:13:16;;;;;;;5.55;3.20;;;;;;;7.57;91.27;94971.78;5043273;28;20029;-92
2022/04/30 00:15:41;;;;;;;9.32;3.30;;;;;;;7.52;99.08;94966.50;5059321;28;20051;-94
2022/04/30 00:18:08;;;;;;;7.13;2.90;;;;;;;7.55;85.55;94968.63;5042847;28;20025;-94
2022/04/30 00:20:36;;;;;;;6.72;2.83;;;;;;;7.44;89.72;94958.00;5043275;28;20116;-94
2022/04/30 00:23:03;;;;;;;6.68;3.28;;;;;;;7.26;93.32;94958.19;5043087;28;20123;-95
2022/04/30 00:25:28;;;;;;;8.27;3.00;;;;;;;7.06;94.09;94960.16;5059427;28;20029;-94
2022/04/30 00:27:54;;;;;;;5.95;2.90;;;;;;;7.13;90.76;94959.25;5059344;28;20092;-94
2022/04/30 00:30:19;;;;;;;6.32;2.75;;;;;;;7.08;90.29;94965.91;5043078;28;20097;-94
2022/04/30 00:32:45;;;;;;;4.97;2.90;;;;;;;7.11;90.13;94951.66;5059420;28;20484;-94
2022/04/30 00:35:11;;;;;;;6.22;2.60;;;;;;;7.05;88.91;94957.78;5042673;28;20025;-95
2022/04/30 00:37:36;;;;;;;5.22;2.95;;;;;;;7.18;85.32;94962.75;5058909;28;20037;-94
2022/04/30 00:40:02;;;;;;;7.72;3.03;;;;;;;7.20;81.58;94955.47;5059110;28;20060;-93
2022/04/30 00:42:28;;;;;;;5.93;3.00;;;;;;;7.12;93.56;94961.03;5042686;28;20048;-94
2022/04/30 00:44:57;;;;;;;7.88;2.92;;;;;;;6.93;92.86;94950.78;5058939;28;20063;-94
2022/04/30 00:47:22;;;;;;;7.72;2.78;;;;;;;6.95;91.72;94954.97;5042911;28;20032;-95
2022/04/30 00:49:48;;;;;;;6.30;3.15;;;;;;;7.08;85.74;94954.72;5042515;28;20335;-94
2022/04/30 00:52:15;;;;;;;5.03;2.95;;;;;;;7.29;83.60;94944.69;5059384;28;20167;-94
2022/04/30 00:54:42;;;;;;;8.27;3.30;;;;;;;7.00;99.34;94952.44;5058792;28;20025;-94
2022/04/30 00:57:13;;;;;;;7.03;3.40;;;;;;;7.23;87.08;94941.19;5042590;28;20029;-94
2022/04/30 00:59:40;;;;;;;6.07;2.90;;;;;;;7.25;88.90;94948.78;5058629;28;20104;-95
2022/04/30 01:02:11;;;;;;;7.93;2.65;;;;;;;7.15;87.71;94944.94;5058652;28;20025;-94
2022/04/30 01:04:37;;;;;;;6.30;2.88;;;;;;;7.39;85.70;94942.28;5042302;28;20028;-94
2022/04/30 01:07:06;;;;;;;8.50;2.78;;;;;;;7.05;100.00;94939.56;5042199;28;20025;-95
2022/04/30 01:09:33;;;;;;;4.72;2.80;;;;;;;7.19;93.77;94937.47;5058596;28;20024;-94
2022/04/30 01:12:10;;;;;;;7.28;2.90;;;;;;;7.22;97.21;94943.00;5058926;28;20021;-95
2022/04/30 01:14:38;;;;;;;10.43;2.83;;;;;;;6.74;100.00;94949.31;5042359;28;20029;-94
2022/04/30 01:17:05;;;;;;;8.05;3.33;;;;;;;6.75;100.00;94953.53;5058726;28;20092;-94
2022/04/30 01:19:37;;;;;;;5.93;2.60;;;;;;;6.97;92.93;94950.31;5059395;28;20032;-94
2022/04/30 01:22:31;;;;;;;4.15;2.70;;;;;;;7.14;86.28;94945.97;5057895;28;20111;-94
2022/04/30 01:25:01;;;;;;;6.43;2.50;;;;;;;7.18;87.11;94941.09;5053514;28;20439;-93
2022/04/30 01:27:28;;;;;;;4.88;2.70;;;;;;;7.21;87.28;94943.22;5042331;28;20020;-95
2022/04/30 01:29:58;;;;;;;6.47;2.55;;;;;;;7.18;92.36;94936.69;5058178;28;20029;-94
2022/04/30 01:38:06;;;;;;;9.77;3.20;;;;;;;7.15;97.62;94936.34;5058051;28;20032;-94
2022/04/30 01:40:32;;;;;;;6.30;3.03;;;;;;;7.11;89.67;94925.59;5041493;28;20438;-94
2022/04/30 01:43:01;;;;;;;8.98;3.53;;;;;;;7.02;100.00;94921.75;5041480;28;20032;-94
2022/04/30 01:45:30;;;;;;;6.43;3.22;;;;;;;6.90;95.49;94920.00;5041319;28;20031;-94
2022/04/30 01:47:57;;;;;;;7.30;3.63;;;;;;;6.54;100.00;94927.03;5041757;28;20321;-94
2022/04/30 01:50:25;;;;;;;9.30;3.45;;;;;;;6.55;100.00;94923.41;5058037;28;20035;-94
2022/04/30 01:52:51;;;;;;;4.55;2.85;;;;;;;6.47;100.00;94915.97;5041183;28;20024;-95
2022/04/30 01:55:17;;;;;;;5.25;3.10;;;;;;;6.57;100.00;94916.16;5057412;28;20085;-94
2022/04/30 01:57:43;;;;;;;9.20;3.03;;;;;;;6.61;100.00;94922.53;5041181;28;20036;-95
2022/04/30 02:00:12;;;;;;;8.13;2.75;;;;;;;6.58;100.00;94922.94;5057531;28;20021;-94
2022/04/30 02:02:49;;;;;;;6.75;3.28;;;;;;;6.62;100.00;94924.09;5057362;28;20048;-94
2022/04/30 02:05:16;;;;;;;4.60;3.05;;;;;;;6.50;100.00;94918.88;5058801;28;20029;-94
2022/04/30 02:07:54;;;;;;;6.90;3.40;;;;;;;6.35;100.00;94919.34;5042682;28;20025;-94
2022/04/30 02:10:21;;;;;;;8.05;3.30;;;;;;;6.18;100.00;94921.81;5040647;28;20036;-94
2022/04/30 02:13:43;;;;;;;4.88;2.90;;;;;;;6.39;100.00;94914.50;5037358;28;20031;-94
2022/04/30 02:16:09;;;;;;;5.35;2.67;;;;;;;6.51;100.00;94915.25;5052423;28;20430;-94
2022/04/30 02:18:35;;;;;;;5.80;3.10;;;;;;;6.50;100.00;94911.06;5037124;28;20021;-94
2022/04/30 02:21:01;;;;;;;6.30;3.35;;;;;;;6.59;100.00;94908.91;5037311;28;20025;-93
2022/04/30 02:23:27;;;;;;;6.70;3.35;;;;;;;6.54;100.00;94906.22;5037177;28;20064;-93
2022/04/30 02:25:54;;;;;;;6.93;3.38;;;;;;;6.15;100.00;94908.47;5037112;28;20082;-94
2022/04/30 02:28:22;;;;;;;7.15;3.30;;;;;;;6.27;100.00;94898.88;5037509;28;20112;-94
2022/04/30 02:30:48;;;;;;;6.07;2.88;;;;;;;6.38;100.00;94899.09;5037629;28;20026;-94
2022/04/30 02:36:36;;;;;;;4.80;2.88;;;;;;;6.56;100.00;94909.38;5037660;28;20032;-94
2022/04/30 02:39:02;;;;;;;7.22;2.80;;;;;;;6.68;100.00;94904.16;5037485;28;20029;-94
2022/04/30 02:41:29;;;;;;;6.50;3.10;;;;;;;6.46;100.00;94904.75;5037036;28;20037;-93
2022/04/30 02:43:55;;;;;;;5.60;3.00;;;;;;;6.49;100.00;94906.88;5037350;28;20025;-94
2022/04/30 02:46:21;;;;;;;6.07;3.03;;;;;;;6.63;100.00;94897.03;5037095;28;20029;-95
2022/04/30 02:48:47;;;;;;;8.93;3.38;;;;;;;6.63;100.00;94906.66;5037164;28;20070;-94
2022/04/30 02:51:15;;;;;;;5.35;3.00;;;;;;;6.60;100.00;94896.69;5037048;28;20034;-93
2022/04/30 02:53:42;;;;;;;6.28;3.10;;;;;;;6.63;100.00;94902.25;5037339;28;20035;-94
2022/04/30 02:56:11;;;;;;;5.20;3.22;;;;;;;6.36;100.00;94897.50;5036666;28;20033;-95
2022/04/30 03:01:21;;;;;;;6.90;3.25;;;;;;;6.37;100.00;94895.69;5036490;28;20048;-94
2022/04/30 03:03:47;;;;;;;5.35;3.05;;;;;;;6.36;100.00;94889.72;5036449;28;20022;-94
2022/04/30 03:06:16;;;;;;;10.93;4.18;;;;;;;6.43;100.00;94889.59;5036737;28;20025;-94
2022/04/30 03:08:44;;;;;;;10.30;3.50;;;;;;;6.19;100.00;94886.97;5036932;28;20045;-94
2022/04/30 03:11:12;;;;;;;5.20;3.20;;;;;;;6.43;100.00;94888.78;5036613;28;20029;-94
2022/04/30 03:13:38;;;;;;;7.90;3.38;;;;;;;6.77;100.00;94887.16;5036468;28;20032;-93
2022/04/30 03:25:01;;;;;;;7.60;3.88;;;;;;;6.52;100.00;94884.81;5037230;28;20071;-94
2022/04/30 03:30:48;;;;;;;9.63;3.72;;;;;;;6.54;100.00;94879.41;5037120;28;20083;-94
2022/04/30 03:33:15;;;;;;;8.55;3.38;;;;;;;6.62;100.00;94866.81;5036209;28;20029;-94
2022/04/30 03:35:40;;;;;;;6.80;3.47;;;;;;;6.45;100.00;94871.13;5035861;28;20036;-95
2022/04/30 03:38:06;;;;;;;5.95;3.30;;;;;;;6.43;100.00;94875.78;5036375;28;20427;-94
2022/04/30 03:40:34;;;;;;;4.63;2.97;;;;;;;6.40;100.00;94871.84;5020054;28;20067;-94
2022/04/30 03:43:01;;;;;;;4.28;3.05;;;;;;;6.38;100.00;94873.84;5036387;28;20048;-93
2022/04/30 03:45:29;;;;;;;6.25;3.08;;;;;;;6.56;100.00;94872.16;5036421;28;20032;-94
2022/04/30 03:47:54;;;;;;;4.97;3.30;;;;;;;6.59;100.00;94875.06;5040182;28;20021;-94
2022/04/30 03:50:20;;;;;;;5.72;2.80;;;;;;;6.42;100.00;94876.78;5039995;28;20036;-95
2022/04/30 03:52:46;;;;;;;8.48;3.55;;;;;;;6.25;100.00;94879.31;5039754;28;20049;-94
2022/04/30 03:55:11;;;;;;;6.18;3.78;;;;;;;6.06;100.00;94877.59;5056772;28;20084;-93
2022/04/30 03:57:37;;;;;;;9.38;3.20;;;;;;;6.08;100.00;94872.97;5039766;28;20033;-94
2022/04/30 04:00:04;;;;;;;8.68;3.70;;;;;;;6.08;100.00;94879.97;5039554;28;20051;-94
2022/04/30 04:02:30;;;;;;;6.00;3.35;;;;;;;6.00;100.00;94877.69;5039764;28;20025;-94
2022/04/30 04:04:56;;;;;;;6.15;3.47;;;;;;;6.05;100.00;94873.41;5039571;28;20098;-93
2022/04/30 04:07:22;;;;;;;7.05;3.22;;;;;;;6.05;100.00;94870.81;5039841;28;20025;-94
2022/04/30 04:09:47;;;;;;;7.13;3.45;;;;;;;6.10;100.00;94862.34;5023271;28;20029;-94
2022/04/30 04:12:13;;;;;;;5.22;3.17;;;;;;;6.24;100.00;94873.31;5039705;28;20036;-94
2022/04/30 04:17:37;;;;;;;5.32;3.10;;;;;;;6.14;100.00;94863.47;5039348;28;20080;-94
2022/04/30 04:20:05;;;;;;;6.55;3.40;;;;;;;6.12;100.00;94859.50;5039487;28;20037;-94
2022/04/30 04:22:36;;;;;;;6.30;3.20;;;;;;;6.23;100.00;94856.09;5022797;28;20056;-94
2022/04/30 04:28:09;;;;;;;10.30;3.30;;;;;;;5.98;100.00;94859.69;4996299;28;20338;-94
2022/04/30 04:30:35;;;;;;;6.03;3.55;;;;;;;6.25;100.00;94855.88;5042702;28;20426;-90
2022/04/30 04:33:02;;;;;;;4.80;3.38;;;;;;;6.38;100.00;94850.41;5038548;28;20025;-91
2022/04/30 04:35:27;;;;;;;5.65;3.60;;;;;;;6.32;100.00;94859.97;5041987;28;20025;-91
2022/04/30 04:37:53;;;;;;;10.30;3.63;;;;;;;6.36;100.00;94858.47;5041986;28;20028;-91
2022/04/30 04:40:19;;;;;;;5.80;2.80;;;;;;;6.48;100.00;94850.63;5041319;28;20021;-90
2022/04/30 04:42:55;;;;;;;6.45;2.95;;;;;;;6.49;100.00;94861.84;5036635;28;20026;-91
2022/04/30 04:45:23;;;;;;;4.43;2.95;;;;;;;6.58;100.00;94857.09;5041985;28;20024;-91
2022/04/30 04:47:50;;;;;;;12.75;3.47;;;;;;;6.62;100.00;94853.81;5038949;28;20053;-92
2022/04/30 04:50:16;;;;;;;6.90;3.40;;;;;;;6.70;100.00;94852.66;5038719;28;20053;-91
2022/04/30 04:52:42;;;;;;;4.32;2.85;;;;;;;6.80;100.00;94862.47;5038821;28;20496;-91
2022/04/30 04:55:09;;;;;;;4.80;2.78;;;;;;;6.75;100.00;94854.56;5038478;28;20112;-90
2022/04/30 04:57:37;;;;;;;7.13;3.45;;;;;;;6.93;100.00;94856.19;5037681;28;20025;-91
2022/04/30 05:00:04;;;;;;;6.88;3.08;;;;;;;6.87;100.00;94857.91;5039543;28;20048;-90
2022/04/30 05:02:30;;;;;;;6.28;3.10;;;;;;;6.84;100.00;94858.38;5021878;28;20040;-91
2022/04/30 05:04:56;;;;;;;12.18;3.65;;;;;;;7.01;100.00;94865.44;5038535;28;20026;-91
2022/04/30 05:07:21;;;;;;;5.90;3.30;;;;;;;7.02;100.00;94870.44;5022105;28;20532;-90
2022/04/30 05:09:47;;;;;;;4.03;2.63;;;;;;;7.14;100.00;94865.19;5038581;28;20025;-91
2022/04/30 05:12:13;;;;;;;5.75;3.10;;;;;;;7.24;100.00;94875.00;5038311;28;20025;-91
2022/04/30 05:14:41;;;;;;;9.32;3.00;;;;;;;7.52;100.00;94870.00;5038225;28;20028;-91
2022/04/30 05:17:07;;;;;;;5.10;2.97;;;;;;;7.65;100.00;94869.72;5038007;28;20025;-91
2022/04/30 05:19:33;;;;;;;5.40;3.05;;;;;;;7.76;100.00;94865.44;5038595;28;20071;-91
2022/04/30 05:21:58;;;;;;;6.47;3.50;;;;;;;7.86;100.00;94867.41;5038195;28;20056;-91
2022/04/30 05:24:24;;;;;;;10.57;3.45;;;;;;;7.88;100.00;94875.78;5038066;28;20069;-91
2022/04/30 05:26:51;;;;;;;5.15;2.95;;;;;;;8.24;100.00;94863.28;5038444;28;20029;-91
2022/04/30 05:29:17;;;;;;;5.65;2.80;;;;;;;8.20;100.00;94870.03;5038568;28;20123;-91
2022/04/30 05:31:43;;;;;;;6.68;3.00;;;;;;;8.41;100.00;94870.31;5021729;28;20037;-91
2022/04/30 05:34:09;;;;;;;8.07;3.53;;;;;;;8.38;100.00;94868.94;5038454;28;20033;-91
2022/04/30 05:36:36;;;;;;;5.60;2.95;;;;;;;8.54;100.00;94862.16;5038523;28;20051;-91
2022/04/30 05:39:01;;;;;;;5.13;3.05;;;;;;;8.69;100.00;94866.00;5038012;28;20342;-91
2022/04/30 05:41:28;;;;;;;4.50;2.78;;;;;;;8.96;100.00;94873.09;5021594;28;20032;-91
2022/04/30 05:43:54;;;;;;;7.97;3.20;;;;;;;9.36;92.32;94866.75;5037916;28;20030;-91
2022/04/30 05:46:19;;;;;;;5.68;3.30;;;;;;;9.61;91.09;94870.59;5037896;28;20029;-91
2022/04/30 05:48:45;;;;;;;3.95;2.83;;;;;;;9.80;92.68;94865.81;5037921;28;20120;-91
2022/04/30 05:51:10;;;;;;;5.68;2.88;;;;;;;10.03;92.17;94863.88;5038150;28;20492;-91
2022/04/30 05:53:38;;;;;;;7.00;3.33;;;;;;;10.04;88.25;94863.66;5038103;28;20033;-91
2022/04/30 05:56:04;;;;;;;5.55;2.70;;;;;;;10.35;90.84;94860.41;5037539;28;20033;-91
2022/04/30 05:58:29;;;;;;;4.00;2.42;;;;;;;10.52;95.21;94869.97;5037409;28;20080;-91
2022/04/30 06:00:55;;;;;;;4.13;2.50;;;;;;;10.67;93.78;94867.44;5021519;28;20029;-91
2022/04/30 06:03:20;;;;;;;7.47;2.67;;;;;;;10.79;93.32;94874.28;5037380;28;20115;-91
2022/04/30 06:05:46;;;;;;;8.55;2.92;;;;;;;10.92;94.83;94867.81;5037110;28;20080;-91
2022/04/30 06:08:11;;;;;;;6.65;2.90;;;;;;;10.79;92.29;94869.06;5037046;28;20025;-91
2022/04/30 06:10:37;;;;;;;5.72;2.58;;;;;;;10.96;92.00;94867.03;5037310;28;20029;-91
2022/04/30 06:13:34;;;;;;;5.20;2.97;;;;;;;11.09;93.24;94873.63;5037761;28;20029;-91
2022/04/30 06:15:59;;;;;;;7.03;3.30;;;;;;;11.19;90.41;94867.63;5038082;28;20430;-91
2022/04/30 06:18:25;;;;;;;7.55;2.80;;;;;;;11.44;85.09;94859.03;5037199;28;20029;-91
2022/04/30 06:20:50;;;;;;;5.35;3.05;;;;;;;11.54;87.82;94863.50;5037033;28;20021;-90
2022/04/30 06:23:16;;;;;;;4.53;2.88;;;;;;;11.38;89.98;94865.31;5037090;28;20431;-90
2022/04/30 06:25:43;;;;;;;3.13;2.42;;;;;;;11.49;89.61;94865.34;5037022;28;20079;-91
2022/04/30 06:28:09;;;;;;;3.55;2.58;;;;;;;11.59;88.85;94860.09;5037083;28;20415;-91
2022/04/30 06:30:35;;;;;;;9.38;3.60;;;;;;;11.10;82.56;94859.47;5037366;28;20021;-91
2022/04/30 06:33:03;;;;;;;6.85;2.90;;;;;;;11.57;88.39;94856.94;5037022;28;20021;-91
2022/04/30 06:35:29;;;;;;;5.07;3.05;;;;;;;11.60;91.27;94857.22;5036904;28;20055;-91
2022/04/30 06:37:54;;;;;;;5.78;3.33;;;;;;;11.45;93.62;94860.59;5036545;28;20029;-91
2022/04/30 06:40:20;;;;;;;10.13;3.28;;;;;;;11.60;83.13;94849.34;5040281;28;20025;-91
2022/04/30 06:42:47;;;;;;;6.13;2.90;;;;;;;11.64;86.31;94854.88;5056521;28;20025;-91
2022/04/30 06:45:13;;;;;;;6.03;3.30;;;;;;;11.73;93.51;94852.50;5039957;28;20346;-91
2022/04/30 06:47:40;;;;;;;6.75;3.55;;;;;;;11.51;98.54;94856.13;5040271;28;20025;-91
2022/04/30 06:50:06;;;;;;;8.07;3.92;;;;;;;11.53;100.00;94855.91;5056928;28;20029;-91
2022/04/30 06:52:32;;;;;;;4.85;3.30;;;;;;;11.68;100.00;94858.53;5040438;28;20029;-90
2022/04/30 06:57:47;;;;;;;4.95;3.05;;;;;;;11.65;100.00;94847.75;5056425;28;20036;-91
2022/04/30 07:02:57;;;;;;;10.90;3.38;;;;;;;11.81;100.00;94851.19;5056515;28;20036;-91
2022/04/30 07:05:23;;;;;;;5.03;2.97;;;;;;;11.88;100.00;94841.19;5039757;28;20349;-91
2022/04/30 07:07:49;;;;;;;6.07;3.22;;;;;;;12.44;87.21;94843.00;5039523;28;20107;-91
2022/04/30 07:10:14;;;;;;;6.35;2.88;;;;;;;12.63;89.04;94849.53;5039739;28;20029;-91
2022/04/30 07:12:40;;;;;;;6.55;2.90;;;;;;;12.58;85.64;94842.44;5056327;28;20126;-91
2022/04/30 07:15:06;;;;;;;5.78;3.30;;;;;;;12.53;91.18;94843.22;5056016;28;20032;-91
2022/04/30 07:17:31;;;;;;;6.07;2.90;;;;;;;12.76;85.73;94841.03;5055813;28;20430;-91
2022/04/30 07:19:57;;;;;;;4.88;2.78;;;;;;;13.00;84.73;94838.59;5039762;28;20025;-91
2022/04/30 07:22:23;;;;;;;5.78;3.45;;;;;;;13.28;80.79;94840.81;5039479;28;20119;-92
2022/04/30 07:24:48;;;;;;;8.13;3.05;;;;;;;13.31;77.18;94844.75;5039711;28;20040;-91
2022/04/30 07:27:14;;;;;;;6.93;3.50;;;;;;;13.33;71.70;94840.78;5055876;28;20040;-92
2022/04/30 07:29:39;;;;;;;5.25;3.38;;;;;;;13.34;65.68;94837.09;5039832;28;20094;-91
2022/04/30 07:32:08;;;;;;;6.38;3.50;;;;;;;13.75;58.99;94837.88;5039809;28;20422;-91
2022/04/30 07:34:35;;;;;;;5.63;3.50;;;;;;;13.69;57.16;94837.94;5039946;28;20025;-93
2022/04/30 07:37:00;;;;;;;5.13;3.50;;;;;;;13.77;56.77;94833.94;5039844;28;20028;-92
2022/04/30 07:39:26;;;;;;;8.07;3.35;;;;;;;13.54;56.08;94846.72;5039576;28;20075;-92
2022/04/30 07:41:55;;;;;;;6.82;3.17;;;;;;;13.94;55.36;94838.81;5039834;28;20107;-91
2022/04/30 07:44:26;;;;;;;11.18;3.78;;;;;;;13.49;55.53;94846.75;5039759;28;20116;-92
2022/04/30 07:46:52;;;;;;;11.02;4.25;;;;;;;13.65;55.71;94839.56;5039735;28;20529;-92
2022/04/30 07:49:17;;;;;;;11.82;3.95;;;;;;;13.87;55.56;94835.69;5039834;28;20056;-92
2022/04/30 07:51:52;;;;;;;7.72;3.63;;;;;;;13.83;54.00;94829.41;5039473;28;20052;-92
2022/04/30 07:54:21;;;;;;;5.95;3.13;;;;;;;13.97;58.92;94834.81;5040584;28;20346;-91
2022/04/30 07:56:47;;;;;;;5.75;3.45;;;;;;;13.60;56.13;94834.31;5039579;28;20438;-92
2022/04/30 07:59:13;;;;;;;7.45;4.35;;;;;;;13.56;54.04;94831.47;5039130;28;20033;-91
2022/04/30 08:01:39;;;;;;;6.55;3.63;;;;;;;13.54;56.69;94833.56;5039454;28;20089;-92
2022/04/30 08:04:04;;;;;;;6.97;3.33;;;;;;;13.73;57.16;94838.19;5039329;28;20036;-91
2022/04/30 08:06:30;;;;;;;5.70;2.83;;;;;;;14.03;58.85;94843.47;5039462;28;20025;-92
2022/04/30 08:08:55;;;;;;;7.15;3.10;;;;;;;13.98;56.85;94839.81;5039403;28;20025;-92
2022/04/30 08:11:21;;;;;;;5.90;3.55;;;;;;;13.93;54.69;94837.22;5039763;28;20457;-91
2022/04/30 08:13:46;;;;;;;5.95;2.97;;;;;;;13.98;53.86;94833.75;5055331;28;20035;-91
2022/04/30 08:16:12;;;;;;;6.85;3.40;;;;;;;14.24;54.21;94831.69;5039133;28;20036;-92
2022/04/30 08:18:38;;;;;;;7.07;2.90;;;;;;;14.59;57.21;94838.69;5039362;28;20075;-91
2022/04/30 08:21:05;;;;;;;4.95;3.30;;;;;;;14.51;57.82;94842.75;5039267;28;20036;-92
2022/04/30 08:23:33;;;;;;;4.70;2.97;;;;;;;14.52;57.52;94847.75;5055427;28;20469;-92
2022/04/30 08:25:59;;;;;;;8.88;3.17;;;;;;;14.41;52.26;94847.03;5039242;28;20025;-91
2022/04/30 08:28:25;;;;;;;5.72;3.20;;;;;;;14.66;54.02;94847.06;5039320;28;20025;-92
2022/04/30 08:30:50;;;;;;;8.93;3.50;;;;;;;14.87;54.93;94845.00;5055214;28;20063;-92
2022/04/30 08:33:16;;;;;;;5.75;3.30;;;;;;;14.94;58.54;94842.03;5040502;28;20488;-91
2022/04/30 08:35:41;;;;;;;4.22;2.92;;;;;;;15.17;52.52;94847.53;5042381;28;20033;-92
2022/04/30 08:38:08;;;;;;;4.03;2.92;;;;;;;15.00;59.30;94842.75;5042558;28;20029;-91
2022/04/30 08:40:35;;;;;;;7.40;3.25;;;;;;;14.60;53.74;94841.06;5042136;28;20351;-91
2022/04/30 08:43:10;;;;;;;7.95;3.33;;;;;;;14.51;55.20;94838.25;5058640;28;20500;-92
2022/04/30 08:45:38;;;;;;;4.30;2.67;;;;;;;14.70;54.69;94842.81;5042488;28;20033;-92
2022/04/30 08:48:09;;;;;;;5.82;3.10;;;;;;;14.84;56.99;94838.44;5058622;28;20021;-91
2022/04/30 08:50:35;;;;;;;3.75;2.88;;;;;;;14.67;56.14;94836.22;5042145;28;20028;-92
2022/04/30 08:53:01;;;;;;;7.68;3.50;;;;;;;14.78;58.28;94839.59;5042343;28;20115;-92
2022/04/30 08:55:26;;;;;;;4.90;3.28;;;;;;;15.00;52.60;94840.91;5041426;28;20063;-92
2022/04/30 08:57:52;;;;;;;7.88;3.38;;;;;;;15.03;50.06;94832.41;5058377;28;20032;-92
2022/04/30 09:00:19;;;;;;;8.88;3.53;;;;;;;15.10;58.99;94838.13;5042314;28;20083;-92
2022/04/30 09:02:57;;;;;;;6.65;2.95;;;;;;;14.94;54.70;94826.97;5042034;28;20025;-92
2022/04/30 09:05:32;;;;;;;9.30;3.00;;;;;;;15.18;58.36;94830.63;5042104;28;20025;-92
2022/04/30 09:07:59;;;;;;;5.38;2.92;;;;;;;15.25;55.50;94821.28;5041919;28;20034;-92
2022/04/30 09:10:29;;;;;;;6.47;3.17;;;;;;;15.19;55.85;94821.63;5042040;28;20036;-91
2022/04/30 09:13:10;;;;;;;5.90;3.03;;;;;;;15.45;51.84;94821.28;5058108;28;20021;-91
2022/04/30 09:15:37;;;;;;;8.25;3.10;;;;;;;15.53;60.79;94821.41;5041969;28;20021;-91
2022/04/30 09:18:04;;;;;;;8.27;2.70;;;;;;;15.58;60.38;94817.94;5041650;28;20029;-92
2022/04/30 09:20:30;;;;;;;6.10;2.85;;;;;;;15.86;57.70;94812.72;5058094;28;20350;-92
2022/04/30 09:22:57;;;;;;;6.07;2.38;;;;;;;15.80;54.20;94808.63;5058155;28;20024;-92
2022/04/30 09:25:23;;;;;;;6.47;2.75;;;;;;;15.52;51.36;94813.81;5058005;28;20349;-92
2022/04/30 09:27:51;;;;;;;5.38;3.03;;;;;;;15.62;48.65;94808.34;5058057;28;20024;-92
2022/04/30 09:30:25;;;;;;;3.70;2.75;;;;;;;15.34;50.90;94807.47;5057910;28;20025;-92
2022/04/30 09:33:03;;;;;;;;;;;;;;;15.61;50.35;94806.78;5058189;28;20110;-92
2022/04/30 09:38:15;;;;;;;4.10;2.75;;;;;;;15.93;50.43;94794.69;5058032;28;20500;-92
2022/04/30 09:40:40;;;;;;;5.57;2.92;;;;;;;15.81;50.19;94807.53;5057776;28;20021;-91
2022/04/30 09:43:16;;;;;;;6.25;2.58;;;;;;;15.54;53.01;94796.59;5057678;28;20032;-91
2022/04/30 09:45:41;;;;;;;8.80;2.72;;;;;;;15.80;52.21;94793.53;5041468;28;20334;-92
2022/04/30 09:53:56;;;;;;;7.82;3.28;;;;;;;16.01;47.09;94797.72;5057674;28;20028;-93
2022/04/30 09:56:35;;;;;;;4.53;2.78;;;;;;;16.28;50.65;94790.91;5043596;28;20044;-92
2022/04/30 09:59:08;;;;;;;5.70;3.30;;;;;;;16.10;53.39;94785.41;5041367;28;20029;-92
2022/04/30 10:01:35;;;;;;;3.85;2.70;;;;;;;16.35;48.72;94786.00;5041049;28;20039;-92
2022/04/30 10:04:09;;;;;;;5.43;2.90;;;;;;;16.16;54.23;94778.94;5057114;28;20021;-92
2022/04/30 10:06:38;;;;;;;5.28;3.10;;;;;;;15.69;51.12;94776.28;5041113;28;20083;-92
2022/04/30 10:09:12;;;;;;;4.13;2.58;;;;;;;16.13;49.69;94771.63;5041248;28;20017;-92
2022/04/30 10:11:54;;;;;;;6.30;3.05;;;;;;;16.17;50.58;94769.94;5057734;28;20315;-92
2022/04/30 10:14:34;;;;;;;6.13;2.90;;;;;;;16.21;52.48;94763.00;5041235;28;20381;-92
2022/04/30 10:17:13;;;;;;;4.97;2.22;;;;;;;16.33;55.14;94767.00;5041335;28;20123;-92
2022/04/30 10:19:45;;;;;;;7.13;3.00;;;;;;;16.36;50.66;94767.22;5041644;28;20063;-92
2022/04/30 10:22:15;;;;;;;8.35;2.60;;;;;;;16.21;52.83;94757.72;5040973;28;20034;-91
2022/04/30 10:24:42;;;;;;;7.55;3.10;;;;;;;16.43;53.22;94753.59;5040229;28;20047;-92
2022/04/30 10:27:08;;;;;;;5.65;2.45;;;;;;;16.45;51.02;94758.59;5040548;28;20064;-91
2022/04/30 10:29:34;;;;;;;7.90;2.70;;;;;;;16.54;48.97;94760.25;5040577;28;20472;-91
2022/04/30 10:31:59;;;;;;;9.35;3.10;;;;;;;16.61;48.67;94756.44;5040086;28;20028;-91
2022/04/30 10:34:31;;;;;;;5.20;3.05;;;;;;;16.04;46.58;94749.56;5040603;28;20025;-91
2022/04/30 10:37:01;;;;;;;5.10;2.50;;;;;;;16.68;48.35;94744.38;5056569;28;20033;-91
2022/04/30 10:39:27;;;;;;;8.05;2.88;;;;;;;16.62;46.78;94744.75;5056386;28;20052;-90
2022/04/30 10:41:53;;;;;;;3.30;2.30;;;;;;;16.89;49.51;94738.66;5040003;28;20029;-91
2022/04/30 10:44:31;;;;;;;9.55;2.78;;;;;;;16.60;52.43;94752.22;5056442;28;20112;-91
2022/04/30 10:47:12;;;;;;;6.20;2.80;;;;;;;16.54;48.93;94747.03;5040374;28;20119;-90
2022/04/30 10:49:38;;;;;;;5.63;2.83;;;;;;;16.59;53.96;94738.22;5040271;28;20025;-90
2022/04/30 10:52:04;;;;;;;6.97;3.42;;;;;;;16.51;49.82;94738.91;5039867;28;20078;-91
2022/04/30 10:54:30;;;;;;;7.15;2.70;;;;;;;16.40;47.93;94740.97;5039393;28;20116;-91
2022/04/30 10:57:05;;;;;;;5.93;2.80;;;;;;;16.80;46.23;94735.13;5039182;28;20025;-91
2022/04/30 10:59:31;;;;;;;6.43;2.83;;;;;;;16.81;45.91;94726.91;5039503;28;20029;-91
2022/04/30 11:01:56;;;;;;;6.43;2.50;;;;;;;16.73;50.52;94722.31;5039907;28;20430;-91
2022/04/30 11:04:23;;;;;;;6.72;2.45;;;;;;;16.86;51.26;94715.44;5038259;28;20102;-91
2022/04/30 11:06:51;;;;;;;4.93;2.50;;;;;;;17.43;52.95;94708.09;5039742;28;20036;-91
2022/04/30 11:09:17;;;;;;;6.45;2.42;;;;;;;17.42;49.46;94707.28;5039937;28;20032;-91
2022/04/30 11:11:47;;;;;;;5.95;2.67;;;;;;;16.80;44.51;94722.69;5055912;28;20122;-91
2022/04/30 11:14:16;;;;;;;3.90;2.50;;;;;;;16.89;48.90;94711.41;5038768;28;20115;-91
2022/04/30 11:16:45;;;;;;;8.38;2.67;;;;;;;17.22;49.53;94704.06;5039874;28;20043;-91
2022/04/30 11:19:15;;;;;;;4.28;2.63;;;;;;;17.23;45.16;94699.56;5036370;28;20413;-92
2022/04/30 11:21:55;;;;;;;8.10;2.70;;;;;;;17.27;45.25;94703.16;5028990;28;20079;-91
2022/04/30 11:24:28;;;;;;;7.05;2.55;;;;;;;17.50;48.89;94685.38;5036036;28;20032;-92
2022/04/30 11:26:56;;;;;;;6.35;2.22;;;;;;;17.91;54.50;94699.44;5037519;28;20035;-91
2022/04/30 11:29:24;;;;;;;3.47;2.20;;;;;;;18.13;51.72;94694.41;5038305;28;20028;-93
2022/04/30 11:31:51;;;;;;;5.15;2.40;;;;;;;17.65;43.70;94692.19;5039609;28;20025;-90
2022/04/30 11:34:17;;;;;;;2.70;2.08;;;;;;;17.67;47.65;94682.06;5039082;28;20036;-92
2022/04/30 11:36:46;;;;;;;4.93;2.67;;;;;;;17.71;46.31;94679.56;5039238;28;20064;-91
2022/04/30 11:39:12;;;;;;;5.88;2.50;;;;;;;17.79;45.00;94678.06;5039032;28;20116;-91
2022/04/30 11:41:42;;;;;;;7.13;2.55;;;;;;;18.07;45.84;94680.50;5039262;28;20033;-91
2022/04/30 11:44:11;;;;;;;4.07;2.30;;;;;;;16.98;45.81;94680.50;5039419;28;20450;-91
2022/04/30 11:46:37;;;;;;;5.22;2.67;;;;;;;17.13;45.35;94681.25;5039526;28;20067;-91
2022/04/30 11:49:07;;;;;;;4.65;2.83;;;;;;;17.06;44.44;94681.66;5039848;28;20067;-91
2022/04/30 11:51:33;;;;;;;8.32;2.63;;;;;;;17.31;50.69;94682.16;5039346;28;20025;-92
2022/04/30 11:54:02;;;;;;;4.47;2.60;;;;;;;16.92;44.85;94666.59;5039386;28;20036;-91
2022/04/30 11:56:28;;;;;;;4.00;1.90;;;;;;;17.61;48.43;94666.59;5039839;28;20430;-91
2022/04/30 11:58:55;;;;;;;5.38;2.90;;;;;;;17.90;47.49;94660.00;5039157;28;20028;-91
2022/04/30 12:01:22;;;;;;;6.80;2.53;;;;;;;17.81;45.53;94660.75;5039576;28;20132;-91
2022/04/30 12:03:56;;;;;;;3.67;2.55;;;;;;;17.96;45.51;94664.06;5039079;28;20319;-91
2022/04/30 12:06:22;;;;;;;;;;;;;;;18.16;49.94;94654.81;5039822;28;20029;-91
2022/04/30 12:08:48;;;;;;;3.75;2.50;;;;;;;18.01;43.48;94656.00;5043175;28;20210;-92
2022/04/30 12:11:13;;;;;;;5.97;2.60;;;;;;;18.15;45.35;94655.13;5043082;28;20040;-91
2022/04/30 12:13:40;;;;;;;4.95;2.53;;;;;;;17.85;45.28;94647.66;5042444;28;20316;-91
2022/04/30 12:16:07;;;;;;;7.82;2.47;;;;;;;18.11;43.93;94654.97;5042936;28;20040;-91
2022/04/30 12:25:12;;;;;;;3.80;1.95;;;;;;;18.17;46.17;94645.00;5059696;28;20539;-90
2022/04/30 12:27:41;;;;;;;4.55;2.50;;;;;;;17.94;43.33;94640.53;5042205;28;20370;-90